Weather at Des Moines International Airport

Public forecast

Using degrees Fahrenheit for public forecast. Weather courtesy of forecast.io.

Current aviation weather report (METAR) for Des Moines International Airport

Retrieved 2020/12/04 21:54 UTC (49 minutes ago):

KDSM 042154Z 31005KT 10SM FEW250 10/M02 A3000 RMK AO2 SLP166 T01001017

Aviation forecast (TAF) for Des Moines International Airport

Retrieved 2020/12/04 18:24 UTC (4 hours ago):

TAF KDSM 041721Z 0418/0518 32006KT P6SM SKC FM050100 33005KT P6SM SKC